sensor_id;sensor_type;location;lat;lon;timestamp;pressure;altitude;pressure_sealevel;temperature;humidity
34921;BME280;21128;50.016;20.002;2023-10-08T00:02:24;98456.68;;;17.24;80.69
34921;BME280;21128;50.016;20.002;2023-10-08T00:04:55;98448.36;;;17.18;81.04
34921;BME280;21128;50.016;20.002;2023-10-08T00:07:21;98446.52;;;17.13;81.44
34921;BME280;21128;50.016;20.002;2023-10-08T00:09:49;98444.48;;;17.07;82.26
34921;BME280;21128;50.016;20.002;2023-10-08T00:12:18;98448.23;;;17.01;82.62
34921;BME280;21128;50.016;20.002;2023-10-08T00:14:47;98458.23;;;16.95;83.44
34921;BME280;21128;50.016;20.002;2023-10-08T00:17:20;98452.61;;;16.87;84.16
34921;BME280;21128;50.016;20.002;2023-10-08T00:19:47;98453.17;;;16.81;84.44
34921;BME280;21128;50.016;20.002;2023-10-08T00:22:19;98454.34;;;16.75;85.48
34921;BME280;21128;50.016;20.002;2023-10-08T00:24:46;98458.80;;;16.61;87.24
34921;BME280;21128;50.016;20.002;2023-10-08T00:27:16;98462.72;;;16.45;90.13
34921;BME280;21128;50.016;20.002;2023-10-08T00:29:44;98466.09;;;16.24;94.78
34921;BME280;21128;50.016;20.002;2023-10-08T00:32:11;98471.62;;;16.01;96.74
34921;BME280;21128;50.016;20.002;2023-10-08T00:34:39;98475.94;;;15.82;99.64
34921;BME280;21128;50.016;20.002;2023-10-08T00:37:11;98481.40;;;15.62;100.00
34921;BME280;21128;50.016;20.002;2023-10-08T00:39:41;98478.83;;;15.37;100.00
34921;BME280;21128;50.016;20.002;2023-10-08T00:42:09;98477.91;;;15.12;100.00
34921;BME280;21128;50.016;20.002;2023-10-08T00:44:36;98474.62;;;14.89;100.00
34921;BME280;21128;50.016;20.002;2023-10-08T00:47:29;98478.14;;;14.69;100.00
34921;BME280;21128;50.016;20.002;2023-10-08T00:50:00;98473.85;;;14.54;100.00
34921;BME280;21128;50.016;20.002;2023-10-08T00:52:33;98476.13;;;14.40;100.00
34921;BME280;21128;50.016;20.002;2023-10-08T00:55:24;98472.04;;;14.28;100.00
34921;BME280;21128;50.016;20.002;2023-10-08T00:58:00;98468.75;;;14.22;100.00
34921;BME280;21128;50.016;20.002;2023-10-08T01:00:36;98474.14;;;14.15;100.00
34921;BME280;21128;50.016;20.002;2023-10-08T01:03:07;98472.52;;;14.07;100.00
34921;BME280;21128;50.016;20.002;2023-10-08T01:05:42;98473.66;;;14.02;100.00
34921;BME280;21128;50.016;20.002;2023-10-08T01:08:11;98473.54;;;13.97;100.00
34921;BME280;21128;50.016;20.002;2023-10-08T01:10:49;98471.27;;;13.92;100.00
34921;BME280;21128;50.016;20.002;2023-10-08T01:13:25;98469.48;;;13.89;100.00
34921;BME280;21128;50.016;20.002;2023-10-08T01:15:53;98475.13;;;13.87;100.00
34921;BME280;21128;50.016;20.002;2023-10-08T01:18:22;98475.20;;;13.85;100.00
34921;BME280;21128;50.016;20.002;2023-10-08T01:21:01;98480.40;;;13.83;100.00
34921;BME280;21128;50.016;20.002;2023-10-08T01:23:35;98478.27;;;13.79;100.00
34921;BME280;21128;50.016;20.002;2023-10-08T01:26:02;98476.12;;;13.76;100.00
34921;BME280;21128;50.016;20.002;2023-10-08T01:28:37;98478.35;;;13.72;100.00
34921;BME280;21128;50.016;20.002;2023-10-08T01:31:04;98484.16;;;13.69;100.00
34921;BME280;21128;50.016;20.002;2023-10-08T01:33:33;98491.85;;;13.65;100.00
34921;BME280;21128;50.016;20.002;2023-10-08T01:36:05;98500.34;;;13.60;100.00
34921;BME280;21128;50.016;20.002;2023-10-08T01:38:34;98502.52;;;13.43;100.00
34921;BME280;21128;50.016;20.002;2023-10-08T01:41:01;98511.63;;;13.28;100.00
34921;BME280;21128;50.016;20.002;2023-10-08T01:43:32;98512.40;;;13.06;100.00
34921;BME280;21128;50.016;20.002;2023-10-08T01:46:02;98508.88;;;12.88;100.00
34921;BME280;21128;50.016;20.002;2023-10-08T01:48:29;98510.20;;;12.76;100.00
34921;BME280;21128;50.016;20.002;2023-10-08T01:51:03;98505.95;;;12.59;100.00
34921;BME280;21128;50.016;20.002;2023-10-08T01:53:36;98516.52;;;12.34;100.00
34921;BME280;21128;50.016;20.002;2023-10-08T01:56:05;98518.61;;;12.18;100.00
34921;BME280;21128;50.016;20.002;2023-10-08T01:58:32;98529.13;;;12.04;100.00
34921;BME280;21128;50.016;20.002;2023-10-08T02:01:02;98531.94;;;11.93;100.00
34921;BME280;21128;50.016;20.002;2023-10-08T02:03:31;98530.68;;;11.88;100.00
34921;BME280;21128;50.016;20.002;2023-10-08T02:05:58;98526.86;;;11.78;100.00
34921;BME280;21128;50.016;20.002;2023-10-08T02:08:26;98526.23;;;11.66;100.00
34921;BME280;21128;50.016;20.002;2023-10-08T02:10:53;98523.45;;;11.53;100.00
34921;BME280;21128;50.016;20.002;2023-10-08T02:13:20;98530.86;;;11.44;100.00
34921;BME280;21128;50.016;20.002;2023-10-08T02:15:50;98546.33;;;11.34;100.00
34921;BME280;21128;50.016;20.002;2023-10-08T02:18:20;98548.96;;;11.23;100.00
34921;BME280;21128;50.016;20.002;2023-10-08T02:20:51;98548.09;;;11.16;100.00
34921;BME280;21128;50.016;20.002;2023-10-08T02:23:19;98548.95;;;11.09;100.00
34921;BME280;21128;50.016;20.002;2023-10-08T02:25:46;98548.98;;;11.07;100.00
34921;BME280;21128;50.016;20.002;2023-10-08T02:28:15;98547.44;;;11.04;100.00
34921;BME280;21128;50.016;20.002;2023-10-08T02:30:43;98546.94;;;10.99;100.00
34921;BME280;21128;50.016;20.002;2023-10-08T02:33:09;98551.48;;;10.92;100.00
34921;BME280;21128;50.016;20.002;2023-10-08T02:35:43;98567.21;;;10.84;100.00
34921;BME280;21128;50.016;20.002;2023-10-08T02:38:12;98570.66;;;10.80;100.00
34921;BME280;21128;50.016;20.002;2023-10-08T02:40:39;98571.28;;;10.80;100.00
34921;BME280;21128;50.016;20.002;2023-10-08T02:43:16;98565.04;;;10.80;100.00
34921;BME280;21128;50.016;20.002;2023-10-08T02:45:44;98562.89;;;10.78;100.00
34921;BME280;21128;50.016;20.002;2023-10-08T02:48:15;98578.95;;;10.75;100.00
34921;BME280;21128;50.016;20.002;2023-10-08T02:50:43;98596.39;;;10.71;100.00
34921;BME280;21128;50.016;20.002;2023-10-08T02:53:14;98593.42;;;10.63;100.00
34921;BME280;21128;50.016;20.002;2023-10-08T02:55:47;98588.41;;;10.59;100.00
34921;BME280;21128;50.016;20.002;2023-10-08T02:58:14;98580.58;;;10.57;100.00
34921;BME280;21128;50.016;20.002;2023-10-08T03:00:42;98581.38;;;10.52;100.00
34921;BME280;21128;50.016;20.002;2023-10-08T03:03:09;98579.45;;;10.45;100.00
34921;BME280;21128;50.016;20.002;2023-10-08T03:05:47;98586.89;;;10.40;100.00
34921;BME280;21128;50.016;20.002;2023-10-08T03:08:15;98595.08;;;10.37;100.00
34921;BME280;21128;50.016;20.002;2023-10-08T03:10:47;98590.55;;;10.28;100.00
34921;BME280;21128;50.016;20.002;2023-10-08T03:13:22;98591.58;;;10.21;100.00
34921;BME280;21128;50.016;20.002;2023-10-08T03:15:49;98590.64;;;10.15;100.00
34921;BME280;21128;50.016;20.002;2023-10-08T03:18:29;98595.60;;;10.13;100.00
34921;BME280;21128;50.016;20.002;2023-10-08T03:21:04;98596.86;;;10.09;100.00
34921;BME280;21128;50.016;20.002;2023-10-08T03:23:32;98581.27;;;10.07;100.00
34921;BME280;21128;50.016;20.002;2023-10-08T03:26:03;98579.80;;;10.08;100.00
34921;BME280;21128;50.016;20.002;2023-10-08T03:29:01;98577.05;;;10.07;100.00
34921;BME280;21128;50.016;20.002;2023-10-08T03:31:32;98579.45;;;10.06;100.00
34921;BME280;21128;50.016;20.002;2023-10-08T03:34:15;98585.29;;;10.00;100.00
34921;BME280;21128;50.016;20.002;2023-10-08T03:36:46;98594.80;;;9.98;100.00
34921;BME280;21128;50.016;20.002;2023-10-08T03:39:14;98603.30;;;9.97;100.00
34921;BME280;21128;50.016;20.002;2023-10-08T03:41:41;98597.79;;;9.98;100.00
34921;BME280;21128;50.016;20.002;2023-10-08T03:44:08;98594.58;;;9.98;100.00
34921;BME280;21128;50.016;20.002;2023-10-08T03:46:43;98601.27;;;9.98;100.00
34921;BME280;21128;50.016;20.002;2023-10-08T03:49:13;98608.91;;;9.95;100.00
34921;BME280;21128;50.016;20.002;2023-10-08T03:51:49;98619.64;;;9.94;100.00
34921;BME280;21128;50.016;20.002;2023-10-08T03:54:20;98633.78;;;9.94;100.00
34921;BME280;21128;50.016;20.002;2023-10-08T03:56:56;98643.02;;;9.93;100.00
34921;BME280;21128;50.016;20.002;2023-10-08T03:59:24;98659.29;;;9.93;100.00
34921;BME280;21128;50.016;20.002;2023-10-08T04:01:58;98670.44;;;9.92;100.00
34921;BME280;21128;50.016;20.002;2023-10-08T04:04:34;98676.11;;;9.88;100.00
34921;BME280;21128;50.016;20.002;2023-10-08T04:07:21;98678.95;;;9.84;100.00
34921;BME280;21128;50.016;20.002;2023-10-08T04:10:11;98676.95;;;9.81;100.00
34921;BME280;21128;50.016;20.002;2023-10-08T04:12:37;98688.05;;;9.77;100.00
34921;BME280;21128;50.016;20.002;2023-10-08T04:15:11;98691.88;;;9.73;100.00
34921;BME280;21128;50.016;20.002;2023-10-08T04:17:43;98693.98;;;9.73;100.00
34921;BME280;21128;50.016;20.002;2023-10-08T04:20:17;98698.90;;;9.71;100.00
34921;BME280;21128;50.016;20.002;2023-10-08T04:23:00;98703.40;;;9.71;100.00
34921;BME280;21128;50.016;20.002;2023-10-08T04:25:29;98707.71;;;9.72;100.00
34921;BME280;21128;50.016;20.002;2023-10-08T04:27:57;98711.54;;;9.74;100.00
34921;BME280;21128;50.016;20.002;2023-10-08T04:30:32;98707.59;;;9.73;100.00
34921;BME280;21128;50.016;20.002;2023-10-08T04:33:04;98715.20;;;9.71;100.00
34921;BME280;21128;50.016;20.002;2023-10-08T04:35:35;98736.66;;;9.67;100.00
34921;BME280;21128;50.016;20.002;2023-10-08T04:38:04;98749.55;;;9.64;100.00
34921;BME280;21128;50.016;20.002;2023-10-08T04:40:32;98750.59;;;9.63;100.00
34921;BME280;21128;50.016;20.002;2023-10-08T04:43:06;98755.86;;;9.62;100.00
34921;BME280;21128;50.016;20.002;2023-10-08T04:45:37;98759.41;;;9.63;100.00
34921;BME280;21128;50.016;20.002;2023-10-08T04:48:05;98763.52;;;9.63;100.00
34921;BME280;21128;50.016;20.002;2023-10-08T04:50:41;98765.95;;;9.59;100.00
34921;BME280;21128;50.016;20.002;2023-10-08T04:53:11;98764.16;;;9.57;100.00
34921;BME280;21128;50.016;20.002;2023-10-08T04:55:37;98769.98;;;9.57;100.00
34921;BME280;21128;50.016;20.002;2023-10-08T04:58:14;98777.52;;;9.54;100.00
34921;BME280;21128;50.016;20.002;2023-10-08T05:00:47;98772.96;;;9.51;100.00
34921;BME280;21128;50.016;20.002;2023-10-08T05:03:20;98782.40;;;9.49;100.00
34921;BME280;21128;50.016;20.002;2023-10-08T05:05:49;98791.02;;;9.46;100.00
34921;BME280;21128;50.016;20.002;2023-10-08T05:08:34;98795.09;;;9.44;100.00
34921;BME280;21128;50.016;20.002;2023-10-08T05:11:21;98802.35;;;9.43;100.00
34921;BME280;21128;50.016;20.002;2023-10-08T05:13:52;98801.19;;;9.44;100.00
34921;BME280;21128;50.016;20.002;2023-10-08T05:16:43;98818.77;;;9.45;100.00
34921;BME280;21128;50.016;20.002;2023-10-08T05:19:33;98833.06;;;9.45;100.00
34921;BME280;21128;50.016;20.002;2023-10-08T05:22:27;98840.74;;;9.46;100.00
34921;BME280;21128;50.016;20.002;2023-10-08T05:24:56;98848.14;;;9.45;100.00
34921;BME280;21128;50.016;20.002;2023-10-08T05:27:36;98851.23;;;9.44;100.00
34921;BME280;21128;50.016;20.002;2023-10-08T05:30:28;98852.70;;;9.43;100.00
34921;BME280;21128;50.016;20.002;2023-10-08T05:32:56;98859.09;;;9.42;100.00
34921;BME280;21128;50.016;20.002;2023-10-08T05:35:42;98858.98;;;9.41;100.00
34921;BME280;21128;50.016;20.002;2023-10-08T05:38:13;98845.67;;;9.41;100.00
34921;BME280;21128;50.016;20.002;2023-10-08T05:40:51;98834.23;;;9.42;100.00
34921;BME280;21128;50.016;20.002;2023-10-08T05:46:14;98842.29;;;9.42;100.00
34921;BME280;21128;50.016;20.002;2023-10-08T05:48:54;98859.96;;;9.44;100.00
34921;BME280;21128;50.016;20.002;2023-10-08T05:51:35;98893.17;;;9.44;100.00
34921;BME280;21128;50.016;20.002;2023-10-08T05:54:17;98899.33;;;9.44;100.00
34921;BME280;21128;50.016;20.002;2023-10-08T05:56:54;98902.14;;;9.43;100.00
34921;BME280;21128;50.016;20.002;2023-10-08T05:59:34;98897.87;;;9.44;100.00
34921;BME280;21128;50.016;20.002;2023-10-08T06:02:20;98912.09;;;9.44;100.00
34921;BME280;21128;50.016;20.002;2023-10-08T06:04:57;98922.88;;;9.43;100.00
34921;BME280;21128;50.016;20.002;2023-10-08T06:07:46;98928.36;;;9.40;100.00
34921;BME280;21128;50.016;20.002;2023-10-08T06:10:24;98927.59;;;9.38;100.00
34921;BME280;21128;50.016;20.002;2023-10-08T06:13:04;98942.89;;;9.37;100.00
34921;BME280;21128;50.016;20.002;2023-10-08T06:15:47;98958.31;;;9.37;100.00
34921;BME280;21128;50.016;20.002;2023-10-08T06:18:19;98952.88;;;9.37;100.00
34921;BME280;21128;50.016;20.002;2023-10-08T06:20:46;98939.91;;;9.38;100.00
34921;BME280;21128;50.016;20.002;2023-10-08T06:23:15;98947.77;;;9.37;100.00
34921;BME280;21128;50.016;20.002;2023-10-08T06:25:46;98958.54;;;9.40;100.00
34921;BME280;21128;50.016;20.002;2023-10-08T06:28:14;98969.56;;;9.40;100.00
34921;BME280;21128;50.016;20.002;2023-10-08T06:30:50;98965.30;;;9.41;100.00
34921;BME280;21128;50.016;20.002;2023-10-08T06:33:21;98972.83;;;9.41;100.00
34921;BME280;21128;50.016;20.002;2023-10-08T06:35:48;98988.34;;;9.41;100.00
34921;BME280;21128;50.016;20.002;2023-10-08T06:38:34;99002.32;;;9.42;100.00
34921;BME280;21128;50.016;20.002;2023-10-08T06:41:03;99003.08;;;9.43;100.00
34921;BME280;21128;50.016;20.002;2023-10-08T06:43:40;99002.64;;;9.44;100.00
34921;BME280;21128;50.016;20.002;2023-10-08T06:46:13;99008.41;;;9.44;100.00
34921;BME280;21128;50.016;20.002;2023-10-08T06:48:41;99019.62;;;9.44;100.00
34921;BME280;21128;50.016;20.002;2023-10-08T06:51:13;99015.36;;;9.44;100.00
34921;BME280;21128;50.016;20.002;2023-10-08T06:53:41;99015.17;;;9.44;100.00
34921;BME280;21128;50.016;20.002;2023-10-08T06:56:08;99013.02;;;9.45;100.00
34921;BME280;21128;50.016;20.002;2023-10-08T06:58:39;99018.77;;;9.47;100.00
34921;BME280;21128;50.016;20.002;2023-10-08T07:01:11;99023.35;;;9.49;100.00
34921;BME280;21128;50.016;20.002;2023-10-08T07:03:39;99028.96;;;9.51;100.00
34921;BME280;21128;50.016;20.002;2023-10-08T07:06:06;99033.90;;;9.52;100.00
34921;BME280;21128;50.016;20.002;2023-10-08T07:08:44;99028.27;;;9.53;100.00
34921;BME280;21128;50.016;20.002;2023-10-08T07:11:22;99032.86;;;9.54;100.00
34921;BME280;21128;50.016;20.002;2023-10-08T07:13:50;99018.01;;;9.54;100.00
34921;BME280;21128;50.016;20.002;2023-10-08T07:16:18;99030.48;;;9.55;100.00
34921;BME280;21128;50.016;20.002;2023-10-08T07:18:47;99048.80;;;9.58;100.00
34921;BME280;21128;50.016;20.002;2023-10-08T07:21:21;99057.36;;;9.58;100.00
34921;BME280;21128;50.016;20.002;2023-10-08T07:23:56;99059.30;;;9.58;100.00
34921;BME280;21128;50.016;20.002;2023-10-08T07:26:28;99057.80;;;9.59;100.00
34921;BME280;21128;50.016;20.002;2023-10-08T07:29:05;99068.48;;;9.63;100.00
34921;BME280;21128;50.016;20.002;2023-10-08T07:31:36;99065.98;;;9.66;100.00
34921;BME280;21128;50.016;20.002;2023-10-08T07:34:03;99061.49;;;9.70;100.00
34921;BME280;21128;50.016;20.002;2023-10-08T07:36:48;99064.41;;;9.74;100.00
34921;BME280;21128;50.016;20.002;2023-10-08T07:39:17;99055.81;;;9.80;100.00
34921;BME280;21128;50.016;20.002;2023-10-08T07:42:02;99064.77;;;9.88;100.00
34921;BME280;21128;50.016;20.002;2023-10-08T07:44:32;99065.98;;;9.93;100.00
34921;BME280;21128;50.016;20.002;2023-10-08T07:47:02;99076.70;;;9.98;100.00
34921;BME280;21128;50.016;20.002;2023-10-08T07:49:41;99083.77;;;10.05;100.00
34921;BME280;21128;50.016;20.002;2023-10-08T07:52:11;99090.55;;;10.14;100.00
34921;BME280;21128;50.016;20.002;2023-10-08T07:54:42;99092.60;;;10.21;100.00
34921;BME280;21128;50.016;20.002;2023-10-08T07:57:10;99089.24;;;10.29;100.00
34921;BME280;21128;50.016;20.002;2023-10-08T07:59:40;99085.61;;;10.47;100.00
34921;BME280;21128;50.016;20.002;2023-10-08T08:02:15;99096.40;;;10.87;100.00
34921;BME280;21128;50.016;20.002;2023-10-08T08:04:44;99094.80;;;11.29;100.00
34921;BME280;21128;50.016;20.002;2023-10-08T08:07:13;99094.11;;;11.62;100.00
34921;BME280;21128;50.016;20.002;2023-10-08T08:09:46;99102.33;;;11.81;100.00
34921;BME280;21128;50.016;20.002;2023-10-08T08:12:27;99105.80;;;11.90;100.00
34921;BME280;21128;50.016;20.002;2023-10-08T08:14:55;99098.80;;;11.92;100.00
34921;BME280;21128;50.016;20.002;2023-10-08T08:17:22;99099.67;;;11.90;100.00
34921;BME280;21128;50.016;20.002;2023-10-08T08:19:50;99104.30;;;11.97;100.00
34921;BME280;21128;50.016;20.002;2023-10-08T08:22:19;99106.91;;;12.08;100.00
34921;BME280;21128;50.016;20.002;2023-10-08T08:24:53;99107.85;;;12.00;100.00
34921;BME280;21128;50.016;20.002;2023-10-08T08:27:31;99110.67;;;11.93;100.00
34921;BME280;21128;50.016;20.002;2023-10-08T08:29:58;99110.25;;;11.80;100.00
34921;BME280;21128;50.016;20.002;2023-10-08T08:32:37;99116.21;;;11.66;100.00
34921;BME280;21128;50.016;20.002;2023-10-08T08:35:10;99116.48;;;11.58;100.00
34921;BME280;21128;50.016;20.002;2023-10-08T08:37:37;99124.44;;;11.54;100.00
34921;BME280;21128;50.016;20.002;2023-10-08T08:40:08;99132.88;;;11.65;100.00
34921;BME280;21128;50.016;20.002;2023-10-08T08:42:36;99128.34;;;11.90;100.00
34921;BME280;21128;50.016;20.002;2023-10-08T08:45:06;99131.08;;;12.20;100.00
34921;BME280;21128;50.016;20.002;2023-10-08T08:47:36;99131.26;;;12.33;100.00
34921;BME280;21128;50.016;20.002;2023-10-08T08:50:04;99129.13;;;12.37;100.00
34921;BME280;21128;50.016;20.002;2023-10-08T08:52:36;99136.71;;;12.39;100.00
34921;BME280;21128;50.016;20.002;2023-10-08T08:55:07;99137.45;;;12.66;100.00
34921;BME280;21128;50.016;20.002;2023-10-08T08:57:48;99139.59;;;12.99;100.00
34921;BME280;21128;50.016;20.002;2023-10-08T09:00:17;99143.66;;;13.08;99.10
34921;BME280;21128;50.016;20.002;2023-10-08T09:02:45;99152.55;;;12.77;96.28
34921;BME280;21128;50.016;20.002;2023-10-08T09:05:14;99162.21;;;12.75;94.31
34921;BME280;21128;50.016;20.002;2023-10-08T09:08:05;99166.14;;;12.94;92.42
34921;BME280;21128;50.016;20.002;2023-10-08T09:10:37;99169.17;;;13.10;89.95
34921;BME280;21128;50.016;20.002;2023-10-08T09:13:06;99165.96;;;13.21;89.84
34921;BME280;21128;50.016;20.002;2023-10-08T09:15:35;99176.05;;;13.40;89.30
34921;BME280;21128;50.016;20.002;2023-10-08T09:18:03;99174.49;;;13.54;89.81
34921;BME280;21128;50.016;20.002;2023-10-08T09:20:31;99168.33;;;13.65;88.70
34921;BME280;21128;50.016;20.002;2023-10-08T09:23:08;99175.05;;;13.71;87.03
34921;BME280;21128;50.016;20.002;2023-10-08T09:25:44;99182.58;;;13.77;85.31
34921;BME280;21128;50.016;20.002;2023-10-08T09:28:13;99187.83;;;13.88;85.01
34921;BME280;21128;50.016;20.002;2023-10-08T09:30:40;99180.73;;;14.11;86.84
34921;BME280;21128;50.016;20.002;2023-10-08T09:33:08;99182.31;;;14.40;85.52
34921;BME280;21128;50.016;20.002;2023-10-08T09:35:36;99181.89;;;14.29;80.12
34921;BME280;21128;50.016;20.002;2023-10-08T09:38:04;99186.33;;;14.03;75.70
34921;BME280;21128;50.016;20.002;2023-10-08T09:40:31;99185.30;;;13.62;70.67
34921;BME280;21128;50.016;20.002;2023-10-08T09:42:58;99196.57;;;13.18;69.98
34921;BME280;21128;50.016;20.002;2023-10-08T09:45:26;99201.92;;;12.97;70.08
34921;BME280;21128;50.016;20.002;2023-10-08T09:47:55;99199.89;;;12.92;70.99
34921;BME280;21128;50.016;20.002;2023-10-08T09:50:29;99208.41;;;12.92;71.17
34921;BME280;21128;50.016;20.002;2023-10-08T09:55:27;99210.05;;;12.97;70.45
34921;BME280;21128;50.016;20.002;2023-10-08T09:57:54;99213.91;;;13.00;68.95
34921;BME280;21128;50.016;20.002;2023-10-08T10:00:23;99219.29;;;13.23;67.91
34921;BME280;21128;50.016;20.002;2023-10-08T10:03:00;99218.90;;;13.62;68.10
34921;BME280;21128;50.016;20.002;2023-10-08T10:05:38;99221.05;;;14.08;65.50
34921;BME280;21128;50.016;20.002;2023-10-08T10:08:05;99222.52;;;14.38;61.44
34921;BME280;21128;50.016;20.002;2023-10-08T10:10:33;99228.11;;;14.56;60.23
34921;BME280;21128;50.016;20.002;2023-10-08T10:13:05;99225.34;;;14.61;59.45
34921;BME280;21128;50.016;20.002;2023-10-08T10:15:39;99229.92;;;14.49;57.75
34921;BME280;21128;50.016;20.002;2023-10-08T10:20:51;99232.98;;;14.25;59.52
34921;BME280;21128;50.016;20.002;2023-10-08T10:26:04;99235.38;;;14.73;59.70
34921;BME280;21128;50.016;20.002;2023-10-08T10:28:31;99238.58;;;15.11;57.58
34921;BME280;21128;50.016;20.002;2023-10-08T10:30:59;99229.47;;;15.29;52.84
34921;BME280;21128;50.016;20.002;2023-10-08T10:33:31;99231.09;;;15.37;51.47
34921;BME280;21128;50.016;20.002;2023-10-08T10:36:03;99239.02;;;15.34;50.17
34921;BME280;21128;50.016;20.002;2023-10-08T10:38:31;99241.89;;;15.22;49.54
34921;BME280;21128;50.016;20.002;2023-10-08T10:41:03;99244.37;;;15.33;48.71
34921;BME280;21128;50.016;20.002;2023-10-08T10:43:35;99245.85;;;15.32;48.87
34921;BME280;21128;50.016;20.002;2023-10-08T10:46:06;99245.13;;;15.53;49.83
34921;BME280;21128;50.016;20.002;2023-10-08T10:48:53;99250.21;;;15.58;50.18
34921;BME280;21128;50.016;20.002;2023-10-08T10:51:51;99251.52;;;15.66;48.73
34921;BME280;21128;50.016;20.002;2023-10-08T10:54:20;99253.04;;;15.36;47.34
34921;BME280;21128;50.016;20.002;2023-10-08T10:56:51;99257.34;;;14.92;47.04
34921;BME280;21128;50.016;20.002;2023-10-08T10:59:38;99257.20;;;14.26;47.46
34921;BME280;21128;50.016;20.002;2023-10-08T11:02:06;99262.40;;;14.00;48.55
34921;BME280;21128;50.016;20.002;2023-10-08T11:04:47;99261.47;;;13.64;48.92
34921;BME280;21128;50.016;20.002;2023-10-08T11:07:16;99269.61;;;13.39;50.35
34921;BME280;21128;50.016;20.002;2023-10-08T11:09:44;99274.39;;;13.32;50.38
34921;BME280;21128;50.016;20.002;2023-10-08T11:12:13;99271.45;;;13.33;50.67
34921;BME280;21128;50.016;20.002;2023-10-08T11:14:47;99275.95;;;13.48;51.63
34921;BME280;21128;50.016;20.002;2023-10-08T11:17:17;99287.58;;;13.44;50.66
34921;BME280;21128;50.016;20.002;2023-10-08T11:19:44;99284.39;;;13.12;48.04
34921;BME280;21128;50.016;20.002;2023-10-08T11:22:13;99284.43;;;12.93;47.16
34921;BME280;21128;50.016;20.002;2023-10-08T11:24:44;99288.52;;;12.89;47.06
34921;BME280;21128;50.016;20.002;2023-10-08T11:27:16;99285.51;;;12.87;46.64
34921;BME280;21128;50.016;20.002;2023-10-08T11:29:49;99283.75;;;12.78;47.41
34921;BME280;21128;50.016;20.002;2023-10-08T11:32:24;99277.46;;;12.68;47.55
34921;BME280;21128;50.016;20.002;2023-10-08T11:34:59;99290.48;;;12.92;47.98
34921;BME280;21128;50.016;20.002;2023-10-08T11:37:31;99285.73;;;13.18;47.46
34921;BME280;21128;50.016;20.002;2023-10-08T11:40:00;99288.56;;;13.63;47.11
34921;BME280;21128;50.016;20.002;2023-10-08T11:42:35;99292.00;;;13.67;46.97
34921;BME280;21128;50.016;20.002;2023-10-08T11:45:03;99290.89;;;13.80;46.07
34921;BME280;21128;50.016;20.002;2023-10-08T11:47:45;99293.92;;;14.12;44.50
34921;BME280;21128;50.016;20.002;2023-10-08T11:50:15;99296.67;;;14.25;42.95
34921;BME280;21128;50.016;20.002;2023-10-08T11:52:48;99290.88;;;14.14;44.01
34921;BME280;21128;50.016;20.002;2023-10-08T11:55:16;99296.16;;;13.90;43.74
34921;BME280;21128;50.016;20.002;2023-10-08T11:57:46;99294.96;;;13.78;44.50
34921;BME280;21128;50.016;20.002;2023-10-08T12:00:16;99298.52;;;13.58;44.17
34921;BME280;21128;50.016;20.002;2023-10-08T12:02:46;99296.38;;;13.34;44.27
34921;BME280;21128;50.016;20.002;2023-10-08T12:05:14;99301.11;;;13.15;45.13
34921;BME280;21128;50.016;20.002;2023-10-08T12:07:47;99304.85;;;13.00;45.14
34921;BME280;21128;50.016;20.002;2023-10-08T12:10:14;99312.31;;;12.79;45.49
34921;BME280;21128;50.016;20.002;2023-10-08T12:12:43;99318.36;;;12.59;45.80
34921;BME280;21128;50.016;20.002;2023-10-08T12:15:12;99322.77;;;12.69;46.34
34921;BME280;21128;50.016;20.002;2023-10-08T12:17:49;99322.42;;;12.89;46.30
34921;BME280;21128;50.016;20.002;2023-10-08T12:20:38;99323.88;;;12.88;45.74
34921;BME280;21128;50.016;20.002;2023-10-08T12:23:05;99336.30;;;12.84;45.26
34921;BME280;21128;50.016;20.002;2023-10-08T12:25:32;99334.34;;;12.73;45.88
34921;BME280;21128;50.016;20.002;2023-10-08T12:28:00;99339.11;;;12.69;45.97
34921;BME280;21128;50.016;20.002;2023-10-08T12:30:31;99337.94;;;12.53;45.42
34921;BME280;21128;50.016;20.002;2023-10-08T12:32:59;99330.61;;;12.43;45.12
34921;BME280;21128;50.016;20.002;2023-10-08T12:35:27;99333.79;;;12.37;45.95
34921;BME280;21128;50.016;20.002;2023-10-08T12:37:56;99335.05;;;12.33;46.18
34921;BME280;21128;50.016;20.002;2023-10-08T12:40:24;99339.47;;;12.29;46.31
34921;BME280;21128;50.016;20.002;2023-10-08T12:42:53;99340.62;;;12.28;46.46
34921;BME280;21128;50.016;20.002;2023-10-08T12:45:21;99339.18;;;12.24;46.48
34921;BME280;21128;50.016;20.002;2023-10-08T12:47:52;99335.05;;;12.18;46.65
34921;BME280;21128;50.016;20.002;2023-10-08T12:50:20;99340.97;;;12.05;47.31
34921;BME280;21128;50.016;20.002;2023-10-08T12:52:55;99341.81;;;11.96;48.01
34921;BME280;21128;50.016;20.002;2023-10-08T12:55:22;99342.69;;;11.97;48.16
34921;BME280;21128;50.016;20.002;2023-10-08T12:57:53;99341.61;;;11.92;48.10
34921;BME280;21128;50.016;20.002;2023-10-08T13:00:32;99346.38;;;11.80;48.75
34921;BME280;21128;50.016;20.002;2023-10-08T13:02:59;99347.67;;;11.71;48.74
34921;BME280;21128;50.016;20.002;2023-10-08T13:05:29;99344.63;;;11.64;48.82
34921;BME280;21128;50.016;20.002;2023-10-08T13:07:57;99348.30;;;11.58;48.90
34921;BME280;21128;50.016;20.002;2023-10-08T13:10:30;99348.10;;;11.52;48.42
34921;BME280;21128;50.016;20.002;2023-10-08T13:12:57;99352.97;;;11.47;48.06
34921;BME280;21128;50.016;20.002;2023-10-08T13:15:24;99349.95;;;11.45;48.20
34921;BME280;21128;50.016;20.002;2023-10-08T13:17:52;99356.63;;;11.51;48.22
34921;BME280;21128;50.016;20.002;2023-10-08T13:20:20;99348.74;;;11.57;48.14
34921;BME280;21128;50.016;20.002;2023-10-08T13:22:47;99357.48;;;11.64;48.48
34921;BME280;21128;50.016;20.002;2023-10-08T13:25:14;99355.95;;;11.73;48.72